X

Important NEWS



New Hub Active

Miami is our new hub! Old members can request transfer via hr@dlxairways.net

Thank you very much and have nice flight.


Deluxe Airways.

X

Tours



Hello again, we created one nice test tour for all pilots to attend. also this is ment to be testing of our tour system

Available Tours

If you find some issues please inform us.

Thank you very much and have nice flight.


Deluxe Airways.

 METAR AND TAF INFORMATION
ArrayMETAR FOR KTPA
47195635 5 KTPA 230453Z 04006KT 10SM CLR 24/20 A3016 RMK AO2 SLP212 T02440200 $ KTPA 2019-02-23T04:53:00Z 27.97 -82.53 24.4 20.0 40 6 10.0 30.159449 1021.2 TRUE TRUE VFR METAR 11.0 KTPA 230353Z 04006KT 10SM FEW065 24/20 A3017 RMK AO2 SLP216 T02330200 $ KTPA 2019-02-23T03:53:00Z 27.97 -82.53 23.3 20.0 40 6 10.0 30.171259 1021.6 TRUE TRUE VFR SPECI 11.0

 AIRPORT MAP

 RUNWAY INFORMATION
Runway 10 Runway length 6999 ft Runway width 150 ft
Runway elevation 14 ft Runway displaced threshold 0 ft Runway heading 92
Runway 28 Runway length 6999 ft Runway width 150 ft
Runway elevation 26 ft Runway displaced threshold 0 ft Runway heading 272
Runway 19L Runway length 8300 ft Runway width 150 ft
Runway elevation 26 ft Runway displaced threshold 0 ft Runway heading 182
Runway 01R Runway length 8300 ft Runway width 150 ft
Runway elevation 18 ft Runway displaced threshold 0 ft Runway heading 2
Runway 19R Runway length 11002 ft Runway width 150 ft
Runway elevation 21 ft Runway displaced threshold 0 ft Runway heading 182
Runway 01L Runway length 11002 ft Runway width 150 ft
Runway elevation 11 ft Runway displaced threshold 0 ft Runway heading 2

 AIRPORT FREQUENCIES
Type A/D Name APP/DEP Frequency 118.15 MHZ
Type ATIS Name ATIS Frequency 126.45 MHZ
Type CLD Name CLNC DEL Frequency 133.6 MHZ
Type GND Name GND Frequency 121.7 MHZ
Type TWR Name TWR Frequency 119.5 MHZ
Type UNIC Name UNICOM Frequency 122.95 MHZ

 AIRPORT NEAR NAVIGATION AIDS
Type NDB Name Cosme Frequency 368 KHZ



Powered by Virtual Airlines Manager [v2.6.2]

Template code change by DeluxeAir